sensor_id;sensor_type;location;lat;lon;timestamp;P1;durP1;ratioP1;P2;durP2;ratioP2
65471;SDS011;52068;50.710;14.492;2023-08-17T00:00:41;3.70;;;2.60;;
65471;SDS011;52068;50.710;14.492;2023-08-17T00:03:07;5.15;;;2.20;;
65471;SDS011;52068;50.710;14.492;2023-08-17T00:05:32;2.58;;;2.38;;
65471;SDS011;52068;50.710;14.492;2023-08-17T00:07:59;4.10;;;2.63;;
65471;SDS011;52068;50.710;14.492;2023-08-17T00:10:25;2.92;;;2.30;;
65471;SDS011;52068;50.710;14.492;2023-08-17T00:12:51;4.82;;;2.40;;
65471;SDS011;52068;50.710;14.492;2023-08-17T00:15:16;2.90;;;2.38;;
65471;SDS011;52068;50.710;14.492;2023-08-17T00:17:42;3.38;;;2.55;;
65471;SDS011;52068;50.710;14.492;2023-08-17T00:20:07;3.00;;;2.40;;
65471;SDS011;52068;50.710;14.492;2023-08-17T00:22:34;2.58;;;2.30;;
65471;SDS011;52068;50.710;14.492;2023-08-17T00:25:00;11.93;;;2.13;;
65471;SDS011;52068;50.710;14.492;2023-08-17T00:27:26;3.83;;;2.40;;
65471;SDS011;52068;50.710;14.492;2023-08-17T00:29:51;2.92;;;2.40;;
65471;SDS011;52068;50.710;14.492;2023-08-17T00:32:17;7.20;;;2.35;;
65471;SDS011;52068;50.710;14.492;2023-08-17T00:34:42;2.67;;;2.25;;
65471;SDS011;52068;50.710;14.492;2023-08-17T00:37:08;4.53;;;2.28;;
65471;SDS011;52068;50.710;14.492;2023-08-17T00:39:33;2.40;;;2.20;;
65471;SDS011;52068;50.710;14.492;2023-08-17T00:41:59;2.72;;;2.50;;
65471;SDS011;52068;50.710;14.492;2023-08-17T00:44:24;2.22;;;2.03;;
65471;SDS011;52068;50.710;14.492;2023-08-17T00:46:49;5.18;;;2.30;;
65471;SDS011;52068;50.710;14.492;2023-08-17T00:49:15;3.10;;;2.42;;
65471;SDS011;52068;50.710;14.492;2023-08-17T00:51:40;2.58;;;2.38;;
65471;SDS011;52068;50.710;14.492;2023-08-17T00:54:06;2.53;;;2.25;;
65471;SDS011;52068;50.710;14.492;2023-08-17T00:56:32;4.97;;;2.50;;
65471;SDS011;52068;50.710;14.492;2023-08-17T00:58:58;3.45;;;2.30;;
65471;SDS011;52068;50.710;14.492;2023-08-17T01:01:23;2.78;;;2.38;;
65471;SDS011;52068;50.710;14.492;2023-08-17T01:03:49;2.67;;;2.30;;
65471;SDS011;52068;50.710;14.492;2023-08-17T01:06:14;2.53;;;2.17;;
65471;SDS011;52068;50.710;14.492;2023-08-17T01:08:40;6.80;;;2.40;;
65471;SDS011;52068;50.710;14.492;2023-08-17T01:11:12;3.63;;;2.53;;
65471;SDS011;52068;50.710;14.492;2023-08-17T01:13:59;3.78;;;2.20;;
65471;SDS011;52068;50.710;14.492;2023-08-17T01:16:31;3.50;;;2.35;;
65471;SDS011;52068;50.710;14.492;2023-08-17T01:19:00;2.40;;;2.00;;
65471;SDS011;52068;50.710;14.492;2023-08-17T01:21:31;2.83;;;2.33;;
65471;SDS011;52068;50.710;14.492;2023-08-17T01:24:03;4.20;;;2.28;;
65471;SDS011;52068;50.710;14.492;2023-08-17T01:26:29;2.70;;;2.45;;
65471;SDS011;52068;50.710;14.492;2023-08-17T01:28:54;2.80;;;2.45;;
65471;SDS011;52068;50.710;14.492;2023-08-17T01:31:30;3.85;;;2.53;;
65471;SDS011;52068;50.710;14.492;2023-08-17T01:34:04;3.70;;;2.40;;
65471;SDS011;52068;50.710;14.492;2023-08-17T01:36:33;5.27;;;2.50;;
65471;SDS011;52068;50.710;14.492;2023-08-17T01:39:02;2.90;;;2.40;;
65471;SDS011;52068;50.710;14.492;2023-08-17T01:41:29;2.60;;;2.40;;
65471;SDS011;52068;50.710;14.492;2023-08-17T01:43:55;3.55;;;2.60;;
65471;SDS011;52068;50.710;14.492;2023-08-17T01:46:22;2.65;;;2.33;;
65471;SDS011;52068;50.710;14.492;2023-08-17T01:48:47;3.00;;;2.33;;
65471;SDS011;52068;50.710;14.492;2023-08-17T01:51:17;3.33;;;2.17;;
65471;SDS011;52068;50.710;14.492;2023-08-17T01:53:46;2.85;;;2.42;;
65471;SDS011;52068;50.710;14.492;2023-08-17T01:56:12;6.13;;;2.03;;
65471;SDS011;52068;50.710;14.492;2023-08-17T01:58:38;2.97;;;2.20;;
65471;SDS011;52068;50.710;14.492;2023-08-17T02:01:03;2.75;;;2.50;;
65471;SDS011;52068;50.710;14.492;2023-08-17T02:03:28;4.45;;;2.30;;
65471;SDS011;52068;50.710;14.492;2023-08-17T02:05:55;4.20;;;2.20;;
65471;SDS011;52068;50.710;14.492;2023-08-17T02:08:21;3.17;;;2.30;;
65471;SDS011;52068;50.710;14.492;2023-08-17T02:10:46;2.42;;;2.22;;
65471;SDS011;52068;50.710;14.492;2023-08-17T02:13:12;2.63;;;2.20;;
65471;SDS011;52068;50.710;14.492;2023-08-17T02:15:38;3.38;;;2.30;;
65471;SDS011;52068;50.710;14.492;2023-08-17T02:18:04;3.83;;;2.30;;
65471;SDS011;52068;50.710;14.492;2023-08-17T02:20:30;3.78;;;2.72;;
65471;SDS011;52068;50.710;14.492;2023-08-17T02:22:55;3.20;;;2.05;;
65471;SDS011;52068;50.710;14.492;2023-08-17T02:25:20;6.45;;;2.60;;
65471;SDS011;52068;50.710;14.492;2023-08-17T02:27:46;4.28;;;2.35;;
65471;SDS011;52068;50.710;14.492;2023-08-17T02:30:11;2.60;;;2.40;;
65471;SDS011;52068;50.710;14.492;2023-08-17T02:32:37;4.05;;;2.17;;
65471;SDS011;52068;50.710;14.492;2023-08-17T02:35:03;3.22;;;2.47;;
65471;SDS011;52068;50.710;14.492;2023-08-17T02:37:28;2.67;;;2.25;;
65471;SDS011;52068;50.710;14.492;2023-08-17T02:39:53;2.53;;;2.30;;
65471;SDS011;52068;50.710;14.492;2023-08-17T02:42:19;3.13;;;2.13;;
65471;SDS011;52068;50.710;14.492;2023-08-17T02:44:44;3.45;;;2.45;;
65471;SDS011;52068;50.710;14.492;2023-08-17T02:47:10;4.85;;;2.50;;
65471;SDS011;52068;50.710;14.492;2023-08-17T02:49:35;3.60;;;2.40;;
65471;SDS011;52068;50.710;14.492;2023-08-17T02:52:01;2.47;;;2.28;;
65471;SDS011;52068;50.710;14.492;2023-08-17T02:54:26;3.10;;;2.20;;
65471;SDS011;52068;50.710;14.492;2023-08-17T02:56:51;3.95;;;2.40;;
65471;SDS011;52068;50.710;14.492;2023-08-17T02:59:17;3.47;;;2.50;;
65471;SDS011;52068;50.710;14.492;2023-08-17T03:01:43;2.67;;;2.20;;
65471;SDS011;52068;50.710;14.492;2023-08-17T03:04:09;4.22;;;2.67;;
65471;SDS011;52068;50.710;14.492;2023-08-17T03:06:34;5.85;;;2.20;;
65471;SDS011;52068;50.710;14.492;2023-08-17T03:09:00;3.40;;;2.45;;
65471;SDS011;52068;50.710;14.492;2023-08-17T03:11:25;3.25;;;2.35;;
65471;SDS011;52068;50.710;14.492;2023-08-17T03:13:50;17.98;;;2.30;;
65471;SDS011;52068;50.710;14.492;2023-08-17T03:16:16;2.60;;;2.40;;
65471;SDS011;52068;50.710;14.492;2023-08-17T03:18:41;2.75;;;2.25;;
65471;SDS011;52068;50.710;14.492;2023-08-17T03:21:07;4.57;;;2.40;;
65471;SDS011;52068;50.710;14.492;2023-08-17T03:23:33;3.45;;;2.78;;
65471;SDS011;52068;50.710;14.492;2023-08-17T03:25:58;3.00;;;2.38;;
65471;SDS011;52068;50.710;14.492;2023-08-17T03:28:24;4.50;;;2.63;;
65471;SDS011;52068;50.710;14.492;2023-08-17T03:30:54;4.25;;;2.85;;
65471;SDS011;52068;50.710;14.492;2023-08-17T03:33:20;2.95;;;2.60;;
65471;SDS011;52068;50.710;14.492;2023-08-17T03:35:45;3.72;;;2.72;;
65471;SDS011;52068;50.710;14.492;2023-08-17T03:38:11;4.05;;;2.60;;
65471;SDS011;52068;50.710;14.492;2023-08-17T03:40:36;5.75;;;2.45;;
65471;SDS011;52068;50.710;14.492;2023-08-17T03:43:01;4.40;;;2.30;;
65471;SDS011;52068;50.710;14.492;2023-08-17T03:45:27;3.60;;;2.53;;
65471;SDS011;52068;50.710;14.492;2023-08-17T03:47:52;4.35;;;2.38;;
65471;SDS011;52068;50.710;14.492;2023-08-17T03:50:17;2.97;;;2.40;;
65471;SDS011;52068;50.710;14.492;2023-08-17T03:52:43;2.50;;;2.30;;
65471;SDS011;52068;50.710;14.492;2023-08-17T03:55:09;2.97;;;2.60;;
65471;SDS011;52068;50.710;14.492;2023-08-17T03:57:34;2.85;;;2.50;;
65471;SDS011;52068;50.710;14.492;2023-08-17T03:59:59;4.47;;;2.55;;
65471;SDS011;52068;50.710;14.492;2023-08-17T04:02:25;3.55;;;2.60;;
65471;SDS011;52068;50.710;14.492;2023-08-17T04:04:50;2.72;;;2.53;;
65471;SDS011;52068;50.710;14.492;2023-08-17T04:07:25;2.70;;;2.20;;
65471;SDS011;52068;50.710;14.492;2023-08-17T04:09:50;2.50;;;1.90;;
65471;SDS011;52068;50.710;14.492;2023-08-17T04:12:15;2.60;;;2.40;;
65471;SDS011;52068;50.710;14.492;2023-08-17T04:14:41;5.50;;;2.70;;
65471;SDS011;52068;50.710;14.492;2023-08-17T04:17:06;5.90;;;2.92;;
65471;SDS011;52068;50.710;14.492;2023-08-17T04:19:32;5.72;;;3.10;;
65471;SDS011;52068;50.710;14.492;2023-08-17T04:21:57;6.10;;;3.05;;
65471;SDS011;52068;50.710;14.492;2023-08-17T04:24:23;6.50;;;2.92;;
65471;SDS011;52068;50.710;14.492;2023-08-17T04:26:49;4.97;;;3.15;;
65471;SDS011;52068;50.710;14.492;2023-08-17T04:29:14;2.88;;;2.67;;
65471;SDS011;52068;50.710;14.492;2023-08-17T04:31:39;3.15;;;2.50;;
65471;SDS011;52068;50.710;14.492;2023-08-17T04:34:05;3.33;;;2.67;;
65471;SDS011;52068;50.710;14.492;2023-08-17T04:36:30;2.95;;;2.75;;
65471;SDS011;52068;50.710;14.492;2023-08-17T04:38:55;4.30;;;2.95;;
65471;SDS011;52068;50.710;14.492;2023-08-17T04:41:21;4.13;;;2.50;;
65471;SDS011;52068;50.710;14.492;2023-08-17T04:43:46;3.85;;;2.95;;
65471;SDS011;52068;50.710;14.492;2023-08-17T04:46:14;3.63;;;2.83;;
65471;SDS011;52068;50.710;14.492;2023-08-17T04:48:39;4.72;;;2.75;;
65471;SDS011;52068;50.710;14.492;2023-08-17T04:51:04;5.63;;;2.83;;
65471;SDS011;52068;50.710;14.492;2023-08-17T04:53:30;4.45;;;2.65;;
65471;SDS011;52068;50.710;14.492;2023-08-17T04:55:55;5.07;;;3.00;;
65471;SDS011;52068;50.710;14.492;2023-08-17T04:58:20;4.90;;;3.03;;
65471;SDS011;52068;50.710;14.492;2023-08-17T05:00:47;3.50;;;2.85;;
65471;SDS011;52068;50.710;14.492;2023-08-17T05:03:13;5.82;;;2.85;;
65471;SDS011;52068;50.710;14.492;2023-08-17T05:05:38;9.43;;;3.08;;
65471;SDS011;52068;50.710;14.492;2023-08-17T05:08:04;4.72;;;2.80;;
65471;SDS011;52068;50.710;14.492;2023-08-17T05:10:29;4.72;;;2.88;;
65471;SDS011;52068;50.710;14.492;2023-08-17T05:12:54;6.45;;;3.00;;
65471;SDS011;52068;50.710;14.492;2023-08-17T05:15:20;6.40;;;2.63;;
65471;SDS011;52068;50.710;14.492;2023-08-17T05:17:46;5.03;;;2.88;;
65471;SDS011;52068;50.710;14.492;2023-08-17T05:20:11;3.40;;;2.53;;
65471;SDS011;52068;50.710;14.492;2023-08-17T05:22:40;4.53;;;2.95;;
65471;SDS011;52068;50.710;14.492;2023-08-17T05:25:06;3.20;;;2.50;;
65471;SDS011;52068;50.710;14.492;2023-08-17T05:27:32;4.38;;;2.70;;
65471;SDS011;52068;50.710;14.492;2023-08-17T05:29:57;4.28;;;2.58;;
65471;SDS011;52068;50.710;14.492;2023-08-17T05:32:23;3.38;;;2.67;;
65471;SDS011;52068;50.710;14.492;2023-08-17T05:34:48;2.70;;;2.50;;
65471;SDS011;52068;50.710;14.492;2023-08-17T05:37:13;3.33;;;2.42;;
65471;SDS011;52068;50.710;14.492;2023-08-17T05:39:40;7.40;;;3.00;;
65471;SDS011;52068;50.710;14.492;2023-08-17T05:42:06;6.70;;;2.60;;
65471;SDS011;52068;50.710;14.492;2023-08-17T05:44:32;7.00;;;2.40;;
65471;SDS011;52068;50.710;14.492;2023-08-17T05:46:58;8.20;;;2.80;;
65471;SDS011;52068;50.710;14.492;2023-08-17T05:49:23;3.08;;;2.53;;
65471;SDS011;52068;50.710;14.492;2023-08-17T05:51:49;6.65;;;2.50;;
65471;SDS011;52068;50.710;14.492;2023-08-17T05:54:14;6.53;;;2.45;;
65471;SDS011;52068;50.710;14.492;2023-08-17T05:56:39;5.60;;;2.63;;
65471;SDS011;52068;50.710;14.492;2023-08-17T05:59:09;13.63;;;2.83;;
65471;SDS011;52068;50.710;14.492;2023-08-17T06:01:35;12.00;;;2.50;;
65471;SDS011;52068;50.710;14.492;2023-08-17T06:04:01;9.48;;;2.80;;
65471;SDS011;52068;50.710;14.492;2023-08-17T06:06:27;4.22;;;3.03;;
65471;SDS011;52068;50.710;14.492;2023-08-17T06:08:52;8.93;;;2.95;;
65471;SDS011;52068;50.710;14.492;2023-08-17T06:11:17;5.18;;;2.65;;
65471;SDS011;52068;50.710;14.492;2023-08-17T06:13:43;5.25;;;2.88;;
65471;SDS011;52068;50.710;14.492;2023-08-17T06:16:09;3.97;;;3.00;;
65471;SDS011;52068;50.710;14.492;2023-08-17T06:18:35;3.20;;;2.90;;
65471;SDS011;52068;50.710;14.492;2023-08-17T06:21:01;5.07;;;2.67;;
65471;SDS011;52068;50.710;14.492;2023-08-17T06:23:26;5.43;;;2.75;;
65471;SDS011;52068;50.710;14.492;2023-08-17T06:25:55;6.85;;;2.70;;
65471;SDS011;52068;50.710;14.492;2023-08-17T06:28:22;4.80;;;2.88;;
65471;SDS011;52068;50.710;14.492;2023-08-17T06:30:51;2.60;;;2.40;;
65471;SDS011;52068;50.710;14.492;2023-08-17T06:33:17;3.47;;;3.00;;
65471;SDS011;52068;50.710;14.492;2023-08-17T06:35:43;4.70;;;2.90;;
65471;SDS011;52068;50.710;14.492;2023-08-17T06:38:08;5.78;;;2.85;;
65471;SDS011;52068;50.710;14.492;2023-08-17T06:40:33;5.75;;;2.90;;
65471;SDS011;52068;50.710;14.492;2023-08-17T06:42:59;4.93;;;3.17;;
65471;SDS011;52068;50.710;14.492;2023-08-17T06:45:24;6.90;;;3.00;;
65471;SDS011;52068;50.710;14.492;2023-08-17T06:47:50;5.97;;;2.97;;
65471;SDS011;52068;50.710;14.492;2023-08-17T06:50:15;3.65;;;3.20;;
65471;SDS011;52068;50.710;14.492;2023-08-17T06:52:40;4.72;;;2.80;;
65471;SDS011;52068;50.710;14.492;2023-08-17T06:55:06;3.05;;;2.75;;
65471;SDS011;52068;50.710;14.492;2023-08-17T06:57:32;4.78;;;2.90;;
65471;SDS011;52068;50.710;14.492;2023-08-17T06:59:57;4.35;;;3.00;;
65471;SDS011;52068;50.710;14.492;2023-08-17T07:02:22;4.40;;;3.00;;
65471;SDS011;52068;50.710;14.492;2023-08-17T07:04:48;5.60;;;3.15;;
65471;SDS011;52068;50.710;14.492;2023-08-17T07:07:13;6.15;;;3.10;;
65471;SDS011;52068;50.710;14.492;2023-08-17T07:09:39;3.13;;;2.80;;
65471;SDS011;52068;50.710;14.492;2023-08-17T07:12:05;5.00;;;2.78;;
65471;SDS011;52068;50.710;14.492;2023-08-17T07:14:30;5.65;;;3.40;;
65471;SDS011;52068;50.710;14.492;2023-08-17T07:16:56;4.53;;;3.10;;
65471;SDS011;52068;50.710;14.492;2023-08-17T07:19:21;5.20;;;2.97;;
65471;SDS011;52068;50.710;14.492;2023-08-17T07:21:47;3.70;;;3.00;;
65471;SDS011;52068;50.710;14.492;2023-08-17T07:24:13;8.23;;;3.03;;
65471;SDS011;52068;50.710;14.492;2023-08-17T07:26:39;8.57;;;3.13;;
65471;SDS011;52068;50.710;14.492;2023-08-17T07:29:05;11.00;;;3.95;;
65471;SDS011;52068;50.710;14.492;2023-08-17T07:31:30;7.25;;;3.28;;
65471;SDS011;52068;50.710;14.492;2023-08-17T07:33:58;4.18;;;3.05;;
65471;SDS011;52068;50.710;14.492;2023-08-17T07:36:24;4.18;;;2.92;;
65471;SDS011;52068;50.710;14.492;2023-08-17T07:38:49;7.72;;;2.92;;
65471;SDS011;52068;50.710;14.492;2023-08-17T07:41:14;3.13;;;2.83;;
65471;SDS011;52068;50.710;14.492;2023-08-17T07:43:40;6.25;;;3.10;;
65471;SDS011;52068;50.710;14.492;2023-08-17T07:46:05;3.35;;;2.95;;
65471;SDS011;52068;50.710;14.492;2023-08-17T07:48:30;4.50;;;2.97;;
65471;SDS011;52068;50.710;14.492;2023-08-17T07:50:58;5.18;;;3.03;;
65471;SDS011;52068;50.710;14.492;2023-08-17T07:53:24;4.03;;;3.05;;
65471;SDS011;52068;50.710;14.492;2023-08-17T07:55:49;3.90;;;3.17;;
65471;SDS011;52068;50.710;14.492;2023-08-17T07:58:15;6.38;;;3.03;;
65471;SDS011;52068;50.710;14.492;2023-08-17T08:00:40;5.63;;;3.03;;
65471;SDS011;52068;50.710;14.492;2023-08-17T08:03:06;12.23;;;3.30;;
65471;SDS011;52068;50.710;14.492;2023-08-17T08:05:31;7.80;;;3.50;;
65471;SDS011;52068;50.710;14.492;2023-08-17T08:07:56;5.13;;;3.40;;
65471;SDS011;52068;50.710;14.492;2023-08-17T08:10:22;6.07;;;3.22;;
65471;SDS011;52068;50.710;14.492;2023-08-17T08:12:47;6.38;;;3.00;;
65471;SDS011;52068;50.710;14.492;2023-08-17T08:15:13;4.57;;;2.97;;
65471;SDS011;52068;50.710;14.492;2023-08-17T08:17:38;5.93;;;3.35;;
65471;SDS011;52068;50.710;14.492;2023-08-17T08:20:04;6.80;;;3.17;;
65471;SDS011;52068;50.710;14.492;2023-08-17T08:22:30;5.00;;;3.47;;
65471;SDS011;52068;50.710;14.492;2023-08-17T08:24:55;5.47;;;3.08;;
65471;SDS011;52068;50.710;14.492;2023-08-17T08:27:20;5.03;;;3.25;;
65471;SDS011;52068;50.710;14.492;2023-08-17T08:29:46;4.03;;;3.22;;
65471;SDS011;52068;50.710;14.492;2023-08-17T08:32:11;6.80;;;3.55;;
65471;SDS011;52068;50.710;14.492;2023-08-17T08:34:37;4.95;;;3.13;;
65471;SDS011;52068;50.710;14.492;2023-08-17T08:37:02;4.93;;;3.55;;
65471;SDS011;52068;50.710;14.492;2023-08-17T08:39:28;4.93;;;3.70;;
65471;SDS011;52068;50.710;14.492;2023-08-17T08:41:53;5.07;;;3.60;;
65471;SDS011;52068;50.710;14.492;2023-08-17T08:44:19;4.88;;;3.63;;
65471;SDS011;52068;50.710;14.492;2023-08-17T08:46:45;3.83;;;3.38;;
65471;SDS011;52068;50.710;14.492;2023-08-17T08:49:11;5.10;;;3.90;;
65471;SDS011;52068;50.710;14.492;2023-08-17T08:51:44;4.93;;;3.63;;
65471;SDS011;52068;50.710;14.492;2023-08-17T08:54:14;5.40;;;4.00;;
65471;SDS011;52068;50.710;14.492;2023-08-17T08:56:45;5.57;;;3.72;;
65471;SDS011;52068;50.710;14.492;2023-08-17T08:59:12;9.18;;;4.18;;
65471;SDS011;52068;50.710;14.492;2023-08-17T09:01:38;5.07;;;3.70;;
65471;SDS011;52068;50.710;14.492;2023-08-17T09:04:04;6.18;;;3.38;;
65471;SDS011;52068;50.710;14.492;2023-08-17T09:06:29;5.97;;;4.00;;
65471;SDS011;52068;50.710;14.492;2023-08-17T09:08:59;6.53;;;4.18;;
65471;SDS011;52068;50.710;14.492;2023-08-17T09:11:27;8.48;;;4.40;;
65471;SDS011;52068;50.710;14.492;2023-08-17T09:13:53;4.50;;;3.97;;
65471;SDS011;52068;50.710;14.492;2023-08-17T09:16:19;6.55;;;3.90;;
65471;SDS011;52068;50.710;14.492;2023-08-17T09:18:45;7.60;;;4.38;;
65471;SDS011;52068;50.710;14.492;2023-08-17T09:21:19;6.03;;;3.75;;
65471;SDS011;52068;50.710;14.492;2023-08-17T09:23:52;4.88;;;4.25;;
65471;SDS011;52068;50.710;14.492;2023-08-17T09:26:19;8.00;;;4.18;;
65471;SDS011;52068;50.710;14.492;2023-08-17T09:28:45;6.10;;;3.75;;
65471;SDS011;52068;50.710;14.492;2023-08-17T09:31:10;4.47;;;3.95;;
65471;SDS011;52068;50.710;14.492;2023-08-17T09:33:36;5.75;;;4.05;;
65471;SDS011;52068;50.710;14.492;2023-08-17T09:36:02;9.25;;;3.80;;
65471;SDS011;52068;50.710;14.492;2023-08-17T09:38:27;7.38;;;4.05;;
65471;SDS011;52068;50.710;14.492;2023-08-17T09:40:53;7.45;;;3.35;;
65471;SDS011;52068;50.710;14.492;2023-08-17T09:43:19;4.68;;;3.70;;
65471;SDS011;52068;50.710;14.492;2023-08-17T09:45:48;6.60;;;3.67;;
65471;SDS011;52068;50.710;14.492;2023-08-17T09:48:17;4.57;;;4.03;;
65471;SDS011;52068;50.710;14.492;2023-08-17T09:50:44;5.15;;;4.10;;
65471;SDS011;52068;50.710;14.492;2023-08-17T09:53:13;5.63;;;4.03;;
65471;SDS011;52068;50.710;14.492;2023-08-17T09:55:40;5.22;;;4.07;;
65471;SDS011;52068;50.710;14.492;2023-08-17T09:58:07;5.65;;;3.80;;
65471;SDS011;52068;50.710;14.492;2023-08-17T10:00:33;6.03;;;4.10;;
65471;SDS011;52068;50.710;14.492;2023-08-17T10:03:01;5.70;;;3.72;;
65471;SDS011;52068;50.710;14.492;2023-08-17T10:05:28;4.72;;;4.05;;
65471;SDS011;52068;50.710;14.492;2023-08-17T10:07:57;4.75;;;3.65;;
65471;SDS011;52068;50.710;14.492;2023-08-17T10:10:25;5.47;;;3.85;;
65471;SDS011;52068;50.710;14.492;2023-08-17T10:15:50;4.80;;;4.20;;
65471;SDS011;52068;50.710;14.492;2023-08-17T10:21:05;5.15;;;4.18;;
65471;SDS011;52068;50.710;14.492;2023-08-17T10:23:35;7.45;;;4.65;;
65471;SDS011;52068;50.710;14.492;2023-08-17T10:26:01;10.55;;;4.85;;
65471;SDS011;52068;50.710;14.492;2023-08-17T10:28:28;12.50;;;4.20;;
65471;SDS011;52068;50.710;14.492;2023-08-17T10:30:54;6.47;;;4.03;;
65471;SDS011;52068;50.710;14.492;2023-08-17T10:33:20;11.32;;;4.28;;
65471;SDS011;52068;50.710;14.492;2023-08-17T10:35:45;5.25;;;4.43;;
65471;SDS011;52068;50.710;14.492;2023-08-17T10:38:12;6.93;;;4.80;;
65471;SDS011;52068;50.710;14.492;2023-08-17T10:40:38;6.45;;;4.45;;
65471;SDS011;52068;50.710;14.492;2023-08-17T10:43:06;6.10;;;4.13;;
65471;SDS011;52068;50.710;14.492;2023-08-17T10:45:32;12.20;;;4.38;;
65471;SDS011;52068;50.710;14.492;2023-08-17T10:48:24;4.93;;;4.00;;
65471;SDS011;52068;50.710;14.492;2023-08-17T10:51:26;4.88;;;4.38;;
65471;SDS011;52068;50.710;14.492;2023-08-17T10:53:49;4.45;;;3.97;;
65471;SDS011;52068;50.710;14.492;2023-08-17T10:56:17;6.20;;;4.30;;
65471;SDS011;52068;50.710;14.492;2023-08-17T10:58:43;7.40;;;4.70;;
65471;SDS011;52068;50.710;14.492;2023-08-17T11:01:09;4.75;;;4.00;;
65471;SDS011;52068;50.710;14.492;2023-08-17T11:03:35;6.35;;;4.55;;
65471;SDS011;52068;50.710;14.492;2023-08-17T11:06:22;4.80;;;4.30;;
65471;SDS011;52068;50.710;14.492;2023-08-17T11:08:51;17.23;;;4.55;;
65471;SDS011;52068;50.710;14.492;2023-08-17T11:11:19;16.88;;;4.55;;
65471;SDS011;52068;50.710;14.492;2023-08-17T11:13:45;34.60;;;5.10;;
65471;SDS011;52068;50.710;14.492;2023-08-17T11:16:12;14.05;;;4.78;;
65471;SDS011;52068;50.710;14.492;2023-08-17T11:18:39;9.95;;;4.55;;
65471;SDS011;52068;50.710;14.492;2023-08-17T11:21:06;14.90;;;4.90;;
65471;SDS011;52068;50.710;14.492;2023-08-17T11:23:33;9.30;;;4.78;;
65471;SDS011;52068;50.710;14.492;2023-08-17T11:26:00;8.23;;;4.82;;
65471;SDS011;52068;50.710;14.492;2023-08-17T11:28:25;15.65;;;4.38;;
65471;SDS011;52068;50.710;14.492;2023-08-17T11:33:25;8.02;;;4.57;;
65471;SDS011;52068;50.710;14.492;2023-08-17T11:35:51;8.00;;;4.53;;
65471;SDS011;52068;50.710;14.492;2023-08-17T11:38:16;8.45;;;4.25;;
65471;SDS011;52068;50.710;14.492;2023-08-17T11:40:41;5.43;;;4.45;;
65471;SDS011;52068;50.710;14.492;2023-08-17T11:43:07;10.00;;;5.05;;
65471;SDS011;52068;50.710;14.492;2023-08-17T11:45:32;8.35;;;4.90;;
65471;SDS011;52068;50.710;14.492;2023-08-17T11:47:59;8.15;;;4.22;;
65471;SDS011;52068;50.710;14.492;2023-08-17T11:50:24;9.05;;;4.50;;
65471;SDS011;52068;50.710;14.492;2023-08-17T11:52:51;8.32;;;4.68;;
65471;SDS011;52068;50.710;14.492;2023-08-17T11:55:17;9.40;;;4.80;;
65471;SDS011;52068;50.710;14.492;2023-08-17T11:57:43;9.68;;;4.38;;
65471;SDS011;52068;50.710;14.492;2023-08-17T12:00:08;6.90;;;4.55;;
65471;SDS011;52068;50.710;14.492;2023-08-17T12:02:35;8.20;;;5.30;;
65471;SDS011;52068;50.710;14.492;2023-08-17T12:05:03;6.78;;;3.83;;
65471;SDS011;52068;50.710;14.492;2023-08-17T12:07:32;5.60;;;4.30;;
65471;SDS011;52068;50.710;14.492;2023-08-17T12:09:59;7.15;;;4.55;;
65471;SDS011;52068;50.710;14.492;2023-08-17T12:12:24;4.90;;;4.13;;
65471;SDS011;52068;50.710;14.492;2023-08-17T12:14:50;5.57;;;4.72;;
65471;SDS011;52068;50.710;14.492;2023-08-17T12:17:18;5.00;;;4.25;;
65471;SDS011;52068;50.710;14.492;2023-08-17T12:19:48;5.50;;;4.20;;
65471;SDS011;52068;50.710;14.492;2023-08-17T12:22:14;8.85;;;4.40;;
65471;SDS011;52068;50.710;14.492;2023-08-17T12:24:39;7.82;;;4.40;;
65471;SDS011;52068;50.710;14.492;2023-08-17T12:27:05;7.15;;;4.13;;
65471;SDS011;52068;50.710;14.492;2023-08-17T12:29:31;6.22;;;4.22;;
65471;SDS011;52068;50.710;14.492;2023-08-17T12:31:57;5.85;;;4.07;;
65471;SDS011;52068;50.710;14.492;2023-08-17T12:34:29;6.47;;;4.20;;
65471;SDS011;52068;50.710;14.492;2023-08-17T12:36:54;4.95;;;4.13;;
65471;SDS011;52068;50.710;14.492;2023-08-17T12:39:19;6.22;;;3.83;;
65471;SDS011;52068;50.710;14.492;2023-08-17T12:41:45;9.25;;;4.38;;
65471;SDS011;52068;50.710;14.492;2023-08-17T12:44:10;7.15;;;4.57;;
65471;SDS011;52068;50.710;14.492;2023-08-17T12:46:39;8.48;;;4.70;;
65471;SDS011;52068;50.710;14.492;2023-08-17T12:49:05;6.63;;;4.72;;
65471;SDS011;52068;50.710;14.492;2023-08-17T12:51:30;7.57;;;4.50;;
65471;SDS011;52068;50.710;14.492;2023-08-17T12:53:56;6.90;;;4.47;;
65471;SDS011;52068;50.710;14.492;2023-08-17T12:56:21;16.52;;;5.40;;
65471;SDS011;52068;50.710;14.492;2023-08-17T12:58:46;8.48;;;5.05;;
65471;SDS011;52068;50.710;14.492;2023-08-17T13:01:12;6.43;;;4.82;;
65471;SDS011;52068;50.710;14.492;2023-08-17T13:03:39;6.38;;;4.65;;
65471;SDS011;52068;50.710;14.492;2023-08-17T13:06:04;9.73;;;4.60;;
65471;SDS011;52068;50.710;14.492;2023-08-17T13:08:30;5.72;;;4.75;;
65471;SDS011;52068;50.710;14.492;2023-08-17T13:10:55;7.28;;;4.82;;
65471;SDS011;52068;50.710;14.492;2023-08-17T13:13:21;6.93;;;4.80;;
65471;SDS011;52068;50.710;14.492;2023-08-17T13:15:46;7.38;;;4.70;;
65471;SDS011;52068;50.710;14.492;2023-08-17T13:18:11;8.82;;;5.10;;
65471;SDS011;52068;50.710;14.492;2023-08-17T13:20:37;7.00;;;4.60;;
65471;SDS011;52068;50.710;14.492;2023-08-17T13:23:03;5.15;;;4.65;;
65471;SDS011;52068;50.710;14.492;2023-08-17T13:25:29;12.20;;;5.13;;
65471;SDS011;52068;50.710;14.492;2023-08-17T13:27:55;11.05;;;4.68;;
65471;SDS011;52068;50.710;14.492;2023-08-17T13:30:20;5.95;;;4.68;;
65471;SDS011;52068;50.710;14.492;2023-08-17T13:32:46;5.57;;;4.43;;
65471;SDS011;52068;50.710;14.492;2023-08-17T13:35:11;8.52;;;5.03;;
65471;SDS011;52068;50.710;14.492;2023-08-17T13:37:37;10.10;;;4.97;;
65471;SDS011;52068;50.710;14.492;2023-08-17T13:40:03;8.93;;;5.05;;
65471;SDS011;52068;50.710;14.492;2023-08-17T13:42:29;13.30;;;5.03;;
65471;SDS011;52068;50.710;14.492;2023-08-17T13:44:54;7.18;;;4.72;;
65471;SDS011;52068;50.710;14.492;2023-08-17T13:47:20;6.18;;;4.57;;
65471;SDS011;52068;50.710;14.492;2023-08-17T13:49:45;8.63;;;4.95;;
65471;SDS011;52068;50.710;14.492;2023-08-17T13:52:10;5.72;;;4.40;;
65471;SDS011;52068;50.710;14.492;2023-08-17T13:54:36;5.50;;;4.53;;
65471;SDS011;52068;50.710;14.492;2023-08-17T13:57:01;7.68;;;4.75;;
65471;SDS011;52068;50.710;14.492;2023-08-17T13:59:27;5.38;;;4.70;;
65471;SDS011;52068;50.710;14.492;2023-08-17T14:01:52;9.95;;;5.20;;
65471;SDS011;52068;50.710;14.492;2023-08-17T14:04:18;8.18;;;4.88;;
65471;SDS011;52068;50.710;14.492;2023-08-17T14:06:43;8.20;;;4.50;;
65471;SDS011;52068;50.710;14.492;2023-08-17T14:09:09;4.97;;;4.38;;
65471;SDS011;52068;50.710;14.492;2023-08-17T14:11:34;6.75;;;4.70;;
65471;SDS011;52068;50.710;14.492;2023-08-17T14:14:00;6.13;;;5.00;;
65471;SDS011;52068;50.710;14.492;2023-08-17T14:16:25;6.68;;;4.60;;
65471;SDS011;52068;50.710;14.492;2023-08-17T14:18:50;6.57;;;4.93;;
65471;SDS011;52068;50.710;14.492;2023-08-17T14:21:16;5.82;;;4.80;;
65471;SDS011;52068;50.710;14.492;2023-08-17T14:23:41;5.43;;;4.93;;
65471;SDS011;52068;50.710;14.492;2023-08-17T14:26:06;6.32;;;4.72;;
65471;SDS011;52068;50.710;14.492;2023-08-17T14:28:32;5.75;;;4.05;;
65471;SDS011;52068;50.710;14.492;2023-08-17T14:30:57;5.32;;;4.45;;
65471;SDS011;52068;50.710;14.492;2023-08-17T14:33:23;7.20;;;4.85;;
65471;SDS011;52068;50.710;14.492;2023-08-17T14:35:49;5.13;;;4.60;;